Weather History for KHHF - November, 2014

Change the Weather History Date:

Monday, November 3, 2014

  Actual Average (KPPA) Record (KPPA)
Temperature  
Mean Temperature 58 °F -  
Max Temperature 67 °F 58 °F 81 °F (1988)
Min Temperature 50 °F 34 °F 8 °F (1991)
Degree Days  
Heating Degree Days 6    
Growing Degree Days 8 (Base 50)    
Moisture  
Dew Point 53 °F    
Average Humidity 79    
Maximum Humidity 91    
Minimum Humidity 67    
Precipitation  
Precipitation 0.08 in - - ()
Sea Level Pressure  
Sea Level Pressure 30.00 in    
Wind  
Wind Speed 12 mph (South)    
Max Wind Speed 24 mph    
Max Gust Speed 32 mph    
Visibility 10 miles    
Events Rain , Thunderstorm    
Averages and records for this station are not official NWS values.
T = Trace of Precipitation, MM = Missing Value Source: NWS Daily Summary

Daily Weather History Graph

Daily Weather History Graph

Search for Another Location

Airport or City:

Trip Planner

Search our weather history database for the weather conditions in past years. The results will help you decide how hot, cold, wet, or windy it might be!

Date:

Astronomy

Nov. 03, 2014 Rise Set
Actual Time 7:05 AM CST 5:43 PM CST
Civil Twilight 6:39 AM CST 6:10 PM CST
Nautical Twilight 6:09 AM CST 6:40 PM CST
Astronomical Twilight 5:39 AM CST 7:10 PM CST
Moon 3:47 PM CST (11/3) 3:25 AM CST (11/3)
Length of Visible Light 11h 31m
Length of Day
10h 37m
Waxing Gibbous, 87% of the Moon is Illuminated
Nov 3
Waxing Gibbous
Nov 6
Full
Nov 14
Last Quarter
Nov 22
New
Nov 29
First Quarter

Hourly Weather History & Observations

Time (CST) Temp. Dew Point Humidity Pressure Visibility Wind Dir Wind Speed Gust Speed Precip Events Conditions
12:15 AM 57.4 °F 50.9 °F 79% 30.01 in 10.0 mi SSW 8.1 mph - N/A   Overcast
12:35 AM 57.9 °F 51.1 °F 78% 30.01 in 10.0 mi SSW 9.2 mph - N/A   Overcast
12:55 AM 58.1 °F 51.3 °F 78% 30.02 in 10.0 mi SSW 9.2 mph - N/A   Overcast
1:15 AM 58.6 °F 51.3 °F 76% 30.00 in 10.0 mi South 8.1 mph - N/A   Overcast
1:35 AM 59.0 °F 51.3 °F 75% 29.99 in 10.0 mi SSW 8.1 mph - N/A   Overcast
1:55 AM 59.2 °F 51.6 °F 76% 29.98 in 10.0 mi South 10.4 mph - N/A   Overcast
2:15 AM 59.0 °F 51.4 °F 76% 29.98 in 10.0 mi South 12.7 mph 20.7 mph N/A   Overcast
2:35 AM 58.5 °F 51.4 °F 77% 29.99 in 10.0 mi South 12.7 mph 20.7 mph N/A   Scattered Clouds
2:55 AM 58.5 °F 51.8 °F 79% 29.99 in 10.0 mi SSW 9.2 mph - N/A   Scattered Clouds
3:15 AM 58.5 °F 51.8 °F 79% 29.97 in 10.0 mi South 12.7 mph 16.1 mph N/A   Mostly Cloudy
3:35 AM 58.1 °F 51.8 °F 80% 29.96 in 10.0 mi South 13.8 mph - N/A   Scattered Clouds
3:55 AM 58.1 °F 51.8 °F 80% 29.96 in 10.0 mi South 13.8 mph - N/A   Scattered Clouds
4:15 AM 57.6 °F 51.8 °F 81% 29.96 in 10.0 mi South 11.5 mph 18.4 mph N/A   Scattered Clouds
4:35 AM 57.4 °F 51.8 °F 82% 29.95 in 10.0 mi South 11.5 mph - N/A   Clear
4:55 AM 57.0 °F 51.8 °F 83% 29.95 in 10.0 mi South 11.5 mph 17.3 mph N/A   Clear
5:15 AM 56.3 °F 51.8 °F 85% 29.96 in 10.0 mi South 10.4 mph - N/A   Clear
5:35 AM 55.8 °F 51.6 °F 86% 29.96 in 10.0 mi South 11.5 mph 16.1 mph N/A   Clear
5:55 AM 55.9 °F 51.8 °F 86% 29.95 in 10.0 mi South 17.3 mph 23.0 mph N/A   Clear
6:15 AM 55.6 °F 51.6 °F 87% 29.95 in 10.0 mi South 17.3 mph 23.0 mph N/A   Clear
6:35 AM 55.8 °F 51.8 °F 87% 29.95 in 10.0 mi South 15.0 mph 20.7 mph N/A   Clear
6:55 AM 56.3 °F 51.8 °F 85% 29.96 in 10.0 mi South 13.8 mph 21.9 mph N/A   Mostly Cloudy
7:15 AM 56.3 °F 51.8 °F 85% 29.96 in 10.0 mi South 13.8 mph 20.7 mph N/A   Mostly Cloudy
7:35 AM 56.3 °F 51.8 °F 85% 29.96 in 10.0 mi South 16.1 mph 25.3 mph N/A   Scattered Clouds
7:55 AM 56.7 °F 52.0 °F 84% 29.96 in 10.0 mi South 18.4 mph - N/A   Scattered Clouds
8:15 AM 57.4 °F 52.2 °F 83% 29.96 in 10.0 mi South 19.6 mph 25.3 mph N/A   Scattered Clouds
8:35 AM 58.5 °F 52.7 °F 81% 29.96 in 10.0 mi South 24.2 mph 32.2 mph N/A   Scattered Clouds
8:55 AM 59.7 °F 52.9 °F 78% 29.96 in 10.0 mi South 18.4 mph 26.5 mph N/A   Scattered Clouds
9:15 AM 60.8 °F 53.1 °F 76% 29.96 in 10.0 mi South 19.6 mph 31.1 mph N/A   Clear
9:35 AM 61.3 °F 53.2 °F 75% 29.96 in 10.0 mi South 23.0 mph 29.9 mph N/A   Clear
9:55 AM 61.7 °F 53.6 °F 75% 29.96 in 10.0 mi South 18.4 mph 28.8 mph N/A   Scattered Clouds
10:15 AM 61.2 °F 53.4 °F 76% 29.98 in 10.0 mi SSW 19.6 mph 27.6 mph N/A   Mostly Cloudy
10:35 AM 61.0 °F 53.6 °F 77% 29.98 in 10.0 mi South 18.4 mph 24.2 mph N/A   Overcast
10:55 AM 62.1 °F 53.8 °F 74% 29.98 in 10.0 mi South 20.7 mph 26.5 mph N/A   Scattered Clouds
11:15 AM 66.4 °F 55.2 °F 67% 29.97 in 10.0 mi SSW 20.7 mph 31.1 mph N/A   Mostly Cloudy
11:35 AM 66.7 °F 55.4 °F 67% 29.98 in 10.0 mi SSW 23.0 mph 29.9 mph N/A   Scattered Clouds
11:55 AM 64.9 °F 54.9 °F 70% 29.97 in 10.0 mi SSW 23.0 mph 28.8 mph N/A   Scattered Clouds
12:15 PM 64.9 °F 55.4 °F 71% 29.96 in 10.0 mi South 20.7 mph 29.9 mph N/A   Mostly Cloudy
12:35 PM 64.9 °F 55.4 °F 71% 29.97 in 10.0 mi SSW 20.7 mph 28.8 mph N/A   Mostly Cloudy
12:55 PM 64.6 °F 56.1 °F 74% 29.96 in 10.0 mi SSW 10.4 mph - N/A Rain Light Rain
1:15 PM 65.3 °F 55.8 °F 71% 29.95 in 10.0 mi SSW 13.8 mph - N/A   Mostly Cloudy
1:35 PM 65.7 °F 56.7 °F 73% 29.95 in 10.0 mi SSW 12.7 mph 18.4 mph N/A   Light Drizzle
1:55 PM 66.7 °F 56.7 °F 70% 29.96 in 10.0 mi SW 15.0 mph 20.7 mph N/A   Overcast
2:15 PM 66.2 °F 57.2 °F 73% 29.95 in 10.0 mi SSW 10.4 mph - N/A   Overcast
2:35 PM 66.2 °F 57.2 °F 73% 29.95 in 10.0 mi SSW 11.5 mph - N/A   Overcast
2:55 PM 67.5 °F 57.6 °F 70% 29.95 in 10.0 mi SSW 11.5 mph - N/A Rain Light Rain
3:15 PM 65.8 °F 58.6 °F 78% 29.95 in 10.0 mi SSW 10.4 mph - N/A   Light Drizzle
3:35 PM 67.1 °F 58.3 °F 73% 29.95 in 10.0 mi SSW 12.7 mph 21.9 mph N/A   Overcast
3:55 PM 66.4 °F 58.1 °F 75% 29.96 in 10.0 mi SSW 12.7 mph 18.4 mph N/A   Mostly Cloudy
4:15 PM 65.5 °F 58.3 °F 77% 29.96 in 10.0 mi SSW 8.1 mph - N/A   Overcast
4:35 PM 65.3 °F 59.0 °F 80% 29.96 in 10.0 mi SSW 8.1 mph - N/A   Scattered Clouds
4:55 PM 64.6 °F 59.0 °F 82% 29.97 in 10.0 mi South 9.2 mph - N/A   Scattered Clouds
5:15 PM 63.9 °F 59.0 °F 84% 29.98 in 10.0 mi South 9.2 mph - N/A   Scattered Clouds
5:35 PM 63.1 °F 59.2 °F 87% 29.99 in 10.0 mi South 4.6 mph - N/A Rain Light Rain
5:55 PM 62.6 °F 59.2 °F 89% 30.00 in 10.0 mi SW 3.5 mph - N/A   Mostly Cloudy
6:15 PM 62.6 °F 59.2 °F 89% 30.01 in 10.0 mi Calm Calm - N/A   Mostly Cloudy
6:35 PM 61.7 °F 59.2 °F 91% 30.02 in 10.0 mi SSW 5.8 mph - N/A   Mostly Cloudy
6:55 PM 62.1 °F 59.2 °F 90% 30.01 in 10.0 mi Calm Calm - N/A Thunderstorm Mostly Cloudy
7:15 PM 62.2 °F 59.2 °F 90% 30.03 in 10.0 mi Calm Calm - N/A   Overcast
7:35 PM 62.1 °F 59.2 °F 90% 30.03 in 10.0 mi Calm Calm - N/A   Overcast
7:55 PM 61.7 °F 59.0 °F 91% 30.03 in 10.0 mi SSW 4.6 mph - N/A   Overcast
8:15 PM 61.9 °F 59.2 °F 91% 30.01 in 10.0 mi SE 5.8 mph - N/A Rain Light Rain
8:35 PM 57.9 °F 47.5 °F 68% 30.07 in 10.0 mi NNE 20.7 mph 32.2 mph N/A   Mostly Cloudy
8:55 PM 54.1 °F 48.2 °F 80% 30.09 in 7.0 mi NNE 16.1 mph 27.6 mph 0.02 in Rain Rain
9:15 PM 53.1 °F 48.2 °F 84% 30.08 in 10.0 mi NE 13.8 mph 20.7 mph 0.04 in Rain Light Rain
9:35 PM 53.2 °F 47.3 °F 80% 30.10 in 10.0 mi ENE 9.2 mph - 0.04 in Rain Light Rain
9:55 PM 52.9 °F 46.8 °F 80% 30.12 in 10.0 mi NNE 6.9 mph 16.1 mph 0.05 in Rain Light Rain
10:15 PM 52.9 °F 45.9 °F 77% 30.12 in 10.0 mi NNE 11.5 mph - N/A   Light Drizzle
10:35 PM 52.3 °F 43.5 °F 72% 30.12 in 10.0 mi NNE 9.2 mph 13.8 mph N/A   Light Drizzle
10:55 PM 52.0 °F 41.7 °F 68% 30.12 in 10.0 mi NNE 12.7 mph 17.3 mph N/A Rain , Thunderstorm Light Thunderstorms and Rain
11:15 PM 51.4 °F 41.7 °F 69% 30.16 in 10.0 mi NNW 8.1 mph 16.1 mph N/A   Light Drizzle
11:35 PM 50.0 °F 41.9 °F 74% 30.15 in 10.0 mi North 10.4 mph 16.1 mph N/A Rain Light Rain
11:55 PM 50.0 °F 41.9 °F 74% 30.13 in 10.0 mi ENE 6.9 mph - 0.01 in   Light Drizzle